Galloway, New Jersey
Current Conditions -  °F | °C
As of 6:54 AM on Sunday 25 Jan 2015 (Local Time) from KACY Reporting Station
Broken Clouds Broken Clouds  
Wind Chill: 25°   Ceiling: 6000
Heat Index: 34°   Visibility: 10mi
Dew Point: 27°   Wind: 12mph
Humidity: 75%   Direction: 250°WSW
Pressure: 29.76"   Gusts: NA
Location:  39.4315°N, 74.5003°W
Report Text: KACY 251154Z 25010KT 10SM BKN060 01/M03 A2976 RMK AO2 SLP077 70005 T00111028 10011 20000 53028
Loading
Personal Weather Stations






























Interactive Weather Map New forecast layout! Learn more

10-Day Weather Forecast

Advertisements
Track Severe Weather on mobile